• Join FlightAware (Why Join?)
  • Login
  • US Flag 
12:34PM EST


 

Airport Tracker/Info


-or-


 

Live Flight TrackerFlight Track Log ✈ FLG3408 ✈ 08-May-2013 ✈ KSLC - KORD

Flight Track Log - Related Links

Times and Time Zones

All times are in EDT time to prevent confusion due to time zone crossing. See the FLG3408 flight status page for this flight to view local times or setup timezone preferences in your user account.

Time Position Orientation Groundspeed Altitude Reporting Facility
EDT Latitude Longitude Course Direction KTS MPH feet Rate Location/Type
01:39PM 40.7603 -111.9950 90° East 186 214 5,000  Level Salt Lake Center
01:40PM 40.7519 -112.0631 261° West 214 246 7,100 1,500 Climbing Salt Lake Center
01:41PM 40.9431 -112.2316 349° North  Level FlightAware Approximate
01:41PM 40.7939 -112.1156 317° Northwest 251 289 8,100  Level Salt Lake Center
01:42PM 41.0091 -112.1604 81° East  Level FlightAware Approximate
01:42PM 40.8517 -112.1894 316° Northwest 283 326 9,600  Level Salt Lake Center
01:43PM 41.0167 -112.0117 90° East  Level FlightAware Approximate
01:43PM 40.9300 -112.2361 336° Northwest 296 341 11,600  Level Salt Lake Center
01:44PM 41.0168 -111.8622 90° East  Level FlightAware Approximate
01:44PM 40.9769 -112.1625 50° Northeast 289 333 14,000  Level Salt Lake Center
01:45PM 40.9881 -112.0425 83° East 305 351 15,500 1,200 Climbing Salt Lake Center
01:46PM 41.0006 -111.9150 83° East 347 399 16,500 1,020 Climbing Salt Lake Center
01:47PM 41.0278 -111.7792 75° East 379 436 17,700 1,320 Climbing Salt Lake Center
01:48PM 41.0611 -111.6286 74° East 395 455 19,300 1,500 Climbing Salt Lake Center
01:49PM 41.0917 -111.4867 74° East 400 460 20,800 1,440 Climbing Salt Lake Center
01:50PM 41.1225 -111.3433 74° East 406 467 22,300 1,440 Climbing Salt Lake Center
01:51PM 41.1522 -111.1989 75° East 402 463 23,800 1,440 Climbing Salt Lake Center
01:52PM 41.1817 -111.0606 74° East 406 467 25,300 1,500 Climbing Salt Lake Center
01:53PM 41.2142 -110.9017 75° East 403 464 26,900 1,500 Climbing Salt Lake Center
01:54PM 41.2428 -110.7650 74° East 402 463 28,400 1,560 Climbing Salt Lake Center
01:55PM 41.2747 -110.6092 75° East 395 455 30,100 1,500 Climbing Salt Lake Center
01:56PM 41.3019 -110.4775 75° East 389 448 31,500 1,320 Climbing Salt Lake Center
01:57PM 41.3269 -110.3281 77° East 376 433 32,900 1,140 Climbing Salt Lake Center
01:58PM 41.3447 -110.1994 80° East 371 427 33,900 960 Climbing Salt Lake Center
01:59PM 41.3661 -110.0492 79° East 370 426 35,000 780 Climbing Salt Lake Center
02:00PM 41.3839 -109.9225 79° East 366 421 35,600 300 Climbing Salt Lake Center
02:01PM 41.4044 -109.7711 80° East 371 427 35,700  Climbing Salt Lake Center
02:02PM 41.4236 -109.6347 79° East 385 443 35,700 180 Level Salt Lake Center
02:03PM 41.4461 -109.4686 80° East 402 463 36,100 300 Climbing Salt Lake Center
02:04PM 41.4658 -109.3233 80° East 411 473 36,400 360 Climbing Salt Lake Center
02:05PM 41.4858 -109.1739 80° East 417 480 36,900 240 Climbing Salt Lake Center
02:06PM 41.5103 -108.9942 80° East 424 488 37,000  Climbing Salt Lake Center
02:08PM 41.5292 -108.8419 81° East 430 495 37,000  Level Salt Lake Center
02:09PM 41.5489 -108.6878 80° East 437 503 37,000  Level Salt Lake Center
02:10PM 41.5714 -108.5069 80° East 441 507 37,000  Level Salt Lake Center
02:11PM 41.5911 -108.3539 80° East 440 506 37,000  Level Salt Lake Center
02:12PM 41.6133 -108.1728 81° East 441 507 37,000  Level Salt Lake Center
02:12PM 41.6192 -108.0697 86° East 440 506 37,000  Level Denver Center
02:13PM 41.6106 -107.8883 94° East 439 505 37,000  Level Denver Center
02:14PM 41.6042 -107.7317 93° East 440 506 37,000  Level Denver Center
02:15PM 41.5956 -107.5486 94° East 441 507 37,000  Level Denver Center
02:16PM 41.5897 -107.3928 93° East 441 507 37,000  Level Denver Center
02:18PM 41.5808 -107.2097 94° East 443 510 37,000  Level Denver Center
02:19PM 41.5753 -107.0536 93° East 441 507 37,000  Level Denver Center
02:20PM 41.5603 -106.8708 96° East 443 510 37,000  Level Denver Center
02:21PM 41.5417 -106.7156 99° East 443 510 37,000  Level Denver Center
02:22PM 41.5258 -106.5581 98° East 446 513 37,000  Level Denver Center
02:23PM 41.5086 -106.3778 97° East 443 510 37,000  Level Denver Center
02:24PM 41.4931 -106.2222 98° East 443 510 37,000  Level Denver Center
02:25PM 41.4739 -106.0372 98° East 448 516 37,000  Level Denver Center
02:26PM 41.4833 -105.8828 85° East 447 514 37,000  Level Denver Center
02:27PM 41.5231 -105.7006 74° East 458 527 37,000  Level Denver Center
02:28PM 41.5606 -105.5458 72° East 459 528 37,000  Level Denver Center
02:29PM 41.5936 -105.3639 76° East 454 522 37,000  Level Denver Center
02:30PM 41.6111 -105.2025 82° East 456 525 37,000  Level Denver Center
02:31PM 41.6333 -105.0181 81° East 453 521 37,000  Level Denver Center
02:32PM 41.6519 -104.8625 81° East 448 516 37,000  Level Denver Center
02:33PM 41.6725 -104.6783 81° East 449 517 37,000  Level Denver Center
02:34PM 41.6939 -104.4956 81° East 449 517 37,000  Level Denver Center
02:35PM 41.7142 -104.3128 81° East 447 514 37,000  Level Denver Center
02:36PM 41.7314 -104.1547 82° East 448 516 37,000  Level Denver Center
02:37PM 41.7517 -103.9717 81° East 449 517 37,000  Level Denver Center
02:38PM 41.7689 -103.8156 82° East 445 512 37,000  Level Denver Center
02:39PM 41.7878 -103.6331 82° East 443 510 37,000  Level Denver Center
02:40PM 41.8031 -103.4750 83° East 446 513 37,000  Level Denver Center
02:41PM 41.8228 -103.2908 82° East 449 517 37,000  Level Denver Center
02:42PM 41.8394 -103.1311 82° East 451 519 37,000  Level Denver Center
02:43PM 41.8561 -102.9725 82° East 451 519 37,000  Level Denver Center
02:45PM 41.8750 -102.7892 82° East 448 516 37,000  Level Denver Center
02:46PM 41.8881 -102.6342 83° East 440 506 37,000  Level Denver Center
02:47PM 41.9058 -102.4531 82° East 440 506 37,000  Level Denver Center
02:48PM 41.9211 -102.2978 82° East 440 506 37,000  Level Denver Center
02:49PM 41.9358 -102.1297 83° East 437 503 37,000  Level Denver Center
02:50PM 41.9519 -101.9469 83° East 441 507 37,000  Level Denver Center
02:51PM 41.9667 -101.7903 83° East 441 507 37,000  Level Denver Center
02:52PM 41.9800 -101.6322 83° East 442 509 37,000  Level Denver Center
02:53PM 41.9958 -101.4489 83° East 441 507 37,000  Level Denver Center
02:54PM 42.0094 -101.2903 83° East 443 510 37,000  Level Denver Center
02:55PM 42.0239 -101.1058 84° East 443 510 37,000  Level Denver Center
02:56PM 42.0378 -100.9458 83° East 448 516 37,000  Level Denver Center
02:57PM 42.0511 -100.7594 84° East 447 514 37,000  Level Denver Center
02:58PM 42.0644 -100.5981 84° East 451 519 37,000  Level Denver Center
02:59PM 42.0767 -100.4356 84° East 454 522 37,000  Level Denver Center
03:00PM 42.0897 -100.2628 84° East 446 513 37,000  Level Minneapolis Center
03:01PM 42.1081 -100.1097 81° East 451 519 37,000  Level Minneapolis Center
03:02PM 42.1272 -99.9394 81° East 458 527 37,000  Level Minneapolis Center
03:03PM 42.1497 -99.7292 82° East 463 533 37,000  Level Denver Center
03:04PM 42.1697 -99.5508 81° East 463 533 37,000  Level Denver Center
03:05PM 42.1886 -99.3747 82° East 470 541 37,000  Level Denver Center
03:06PM 42.2064 -99.2092 82° East 473 544 37,000  Level Minneapolis Center
03:07PM 42.2250 -99.0306 82° East 478 550 37,000  Level Minneapolis Center
03:08PM 42.2431 -98.8511 82° East 481 554 37,000  Level Minneapolis Center
03:09PM 42.2614 -98.6692 82° East 487 560 37,000  Level Minneapolis Center
03:10PM 42.2792 -98.4886 82° East 486 559 37,000  Level Minneapolis Center
03:11PM 42.3008 -98.2708 82° East 488 562 37,000  Level Minneapolis Center
03:12PM 42.3178 -98.0881 83° East 489 563 37,000  Level Minneapolis Center
03:13PM 42.3347 -97.9053 83° East 490 564 37,000  Level Minneapolis Center
03:14PM 42.3528 -97.7217 82° East 492 566 37,000  Level Minneapolis Center
03:15PM 42.3683 -97.5375 83° East 492 566 37,000  Level Minneapolis Center
03:16PM 42.3844 -97.3536 83° East 493 567 37,000  Level Minneapolis Center
03:17PM 42.4011 -97.1664 83° East 497 572 37,000  Level Minneapolis Center
03:18PM 42.4167 -96.9808 83° East 497 572 37,000  Level Minneapolis Center
03:19PM 42.4314 -96.7953 84° East 496 571 37,000  Level Minneapolis Center
03:20PM 42.4500 -96.5736 83° East 493 567 37,000  Level Minneapolis Center
03:21PM 42.4644 -96.3886 84° East 493 567 37,000  Level Minneapolis Center
03:22PM 42.4800 -96.2039 83° East 493 567 37,000  Level Minneapolis Center
03:24PM 42.4942 -96.0139 84° East 502 578 37,000  Level Minneapolis Center
03:25PM 42.5078 -95.8275 84° East 498 573 37,000  Level Minneapolis Center
03:26PM 42.5217 -95.6392 84° East 501 577 37,000  Level Minneapolis Center
03:27PM 42.5350 -95.4514 84° East 499 574 37,000  Level Minneapolis Center
03:28PM 42.5478 -95.2619 85° East 503 579 37,000  Level Minneapolis Center
03:29PM 42.5631 -95.0381 85° East 498 573 37,000  Level Minneapolis Center
03:30PM 42.5758 -94.8511 85° East 498 573 37,000  Level Minneapolis Center
03:31PM 42.5872 -94.6658 85° East 494 568 37,000  Level Minneapolis Center
03:32PM 42.5969 -94.4947 86° East 492 566 37,000  Level Minneapolis Center
03:33PM 42.6078 -94.3150 85° East 486 559 37,000  Level Minneapolis Center
03:34PM 42.6017 -94.1006 92° East 480 552 37,000  Level Minneapolis Center
03:35PM 42.5933 -93.9217 94° East 480 552 37,000  Level Minneapolis Center
03:36PM 42.5844 -93.7428 94° East 480 552 37,000  Level Minneapolis Center
03:37PM 42.5767 -93.5639 93° East 479 551 37,000  Level Minneapolis Center
03:38PM 42.5675 -93.3847 94° East 482 555 37,000  Level Minneapolis Center
03:39PM 42.5572 -93.1706 94° East 479 551 37,000  Level Minneapolis Center
03:40PM 42.5475 -92.9944 94° East 475 547 37,000  Level Minneapolis Center
03:41PM 42.5372 -92.8178 94° East 475 547 37,000  Level Minneapolis Center
03:42PM 42.5278 -92.6433 94° East 472 543 37,000  Level Minneapolis Center
03:43PM 42.5158 -92.4319 94° East 474 545 37,000  Level Minneapolis Center
03:44PM 42.5028 -92.2247 95° East 470 541 37,000 -420 Level Minneapolis Center
03:45PM 42.4931 -92.0514 94° East 469 540 36,200 -960 Descending Minneapolis Center
03:46PM 42.4817 -91.8803 95° East 467 537 35,100 -1,140 Descending Minneapolis Center
03:47PM 42.4703 -91.7092 95° East 466 536 33,900 -1,260 Descending Minneapolis Center
03:48PM 42.4564 -91.5011 95° East 472 543 32,500 -1,260 Descending Minneapolis Center
03:49PM 42.4444 -91.3239 95° East 478 550 31,300 -720 Descending Minneapolis Center
03:51PM 42.4350 -91.1433 94° East 486 559 31,100 -660 Descending Minneapolis Center
03:52PM 42.4511 -90.9308 84° East 494 568 30,000 -1,380 Descending Minneapolis Center
03:53PM 42.4625 -90.7447 85° East 489 563 28,300 -1,260 Descending Minneapolis Center
03:54PM 42.4719 -90.5869 85° East 482 555 27,400 -1,500 Descending Minneapolis Center
03:55PM 42.4867 -90.3631 85° East 467 537 24,900 -1,500 Descending Chicago Center
03:56PM 42.4978 -90.1903 85° East 467 537 24,000 -960 Descending Chicago Center
03:57PM 42.5103 -89.9831 85° East 464 534 22,900 -1,320 Descending Chicago Center
03:58PM 42.5189 -89.8208 86° East 453 521 21,300 -1,500 Descending Chicago Center
03:59PM 42.5292 -89.6589 85° East 435 501 19,800 -1,680 Descending Chicago Center
04:00PM 42.5378 -89.4703 86° East 430 495 17,900 -1,680 Descending Chicago Center
04:01PM 42.5467 -89.3161 85° East 419 482 16,400 -1,500 Descending Chicago Center
04:02PM 42.5550 -89.1628 86° East 411 473 14,800 -1,500 Descending Chicago Center
04:03PM 42.5317 -89.0206 103° East 400 460 13,400 -1,560 Descending Chicago Center
04:04PM 42.4911 -88.8842 112° Southeast 397 457 11,600 -1,800 Descending Chicago Center
04:05PM 42.4478 -88.7389 112° Southeast 368 423 9,700 -1,260 Descending Chicago Center
04:06PM 42.4192 -88.6431 112° Southeast 295 339 9,000 -360 Descending Chicago Center
04:07PM 42.3886 -88.5453 113° Southeast 283 326 9,000 -300 Level Chicago Center
04:08PM 42.3464 -88.4511 121° Southeast 293 337 8,500 -960 Descending Chicago Center
04:09PM 42.3047 -88.3617 122° Southeast 279 321 7,000 -720 Descending Chicago Center
04:10PM 42.2622 -88.2758 124° Southeast 278 320 7,000 -120 Level Chicago Center
04:11PM 42.2222 -88.1908 134° Southeast 273 314 6,800 -780 Descending Chicago Center
04:12PM 42.1527 -88.1704 134° Southeast  Level FlightAware Approximate
04:12PM 42.1569 -88.1219 142° Southeast 254 292 5,500  Level Chicago Center
04:13PM 42.1000 -88.0667 144° Southeast 247 284 4,000 -1,500 Descending Chicago TRACON
04:14PM 42.0667 -88.0167 132° Southeast 210 242 2,600 -1,440 Descending Chicago TRACON